Time;durP1;ratioP1;P1;durP2;ratioP2;P2;SDS_P1;SDS_P2;PMS_P1;PMS_P2;Temp;Humidity;BMP_temperature;BMP_pressure;BME280_temperature;BME280_humidity;BME280_pressure;Samples;Min_cycle;Max_cycle;Signal;HPM_P1;HPM_P2
2023/04/12 00:02:13;;;;;;;6.55;1.63;;;;;;;;;;5035362;28;20574;-81
2023/04/12 00:04:40;;;;;;;5.50;2.20;;;;;;;;;;5040114;28;20216;-82
2023/04/12 00:07:08;;;;;;;8.23;2.10;;;;;;;;;;5040047;28;20224;-81
2023/04/12 00:09:36;;;;;;;6.70;2.28;;;;;;;;;;5056797;28;20201;-81
2023/04/12 00:12:03;;;;;;;4.47;1.70;;;;;;;;;;5074094;28;20242;-81
2023/04/12 00:14:29;;;;;;;6.80;1.98;;;;;;;;;;5040410;28;20185;-80
2023/04/12 00:16:55;;;;;;;6.13;1.80;;;;;;;;;;5056217;28;20177;-80
2023/04/12 00:19:24;;;;;;;4.25;1.60;;;;;;;;;;5056601;28;20176;-81
2023/04/12 00:21:50;;;;;;;7.78;1.70;;;;;;;;;;5057207;28;20169;-81
2023/04/12 00:24:17;;;;;;;3.72;1.30;;;;;;;;;;5055904;28;20192;-80
2023/04/12 00:26:43;;;;;;;7.50;1.50;;;;;;;;;;5056635;28;20173;-82
2023/04/12 00:29:09;;;;;;;5.00;1.63;;;;;;;;;;5073427;28;20223;-81
2023/04/12 00:31:35;;;;;;;1.92;1.10;;;;;;;;;;5039990;28;20415;-80
2023/04/12 00:34:01;;;;;;;5.17;1.33;;;;;;;;;;5056116;28;20173;-82
2023/04/12 00:36:27;;;;;;;2.70;1.40;;;;;;;;;;5057189;28;20411;-80
2023/04/12 00:38:53;;;;;;;4.87;1.50;;;;;;;;;;5039956;28;20419;-82
2023/04/12 00:41:19;;;;;;;6.60;1.87;;;;;;;;;;5056435;28;20469;-80
2023/04/12 00:43:46;;;;;;;5.93;1.52;;;;;;;;;;5056229;28;20856;-81
2023/04/12 00:46:12;;;;;;;3.45;1.60;;;;;;;;;;5039680;28;20212;-80
2023/04/12 00:48:39;;;;;;;4.95;2.35;;;;;;;;;;5056413;28;20241;-81
2023/04/12 00:51:06;;;;;;;3.63;1.90;;;;;;;;;;5056507;28;20715;-81
2023/04/12 00:53:32;;;;;;;3.58;1.80;;;;;;;;;;5056576;28;20176;-81
2023/04/12 00:55:58;;;;;;;6.60;1.73;;;;;;;;;;5039817;28;20185;-81
2023/04/12 00:58:24;;;;;;;2.75;1.58;;;;;;;;;;5055708;28;20621;-80
2023/04/12 01:00:51;;;;;;;5.28;2.03;;;;;;;;;;5056830;28;20176;-79
2023/04/12 01:03:23;;;;;;;3.80;1.25;;;;;;;;;;5074382;28;20165;-80
2023/04/12 01:05:59;;;;;;;5.57;2.00;;;;;;;;;;5056825;28;20173;-79
2023/04/12 01:08:42;;;;;;;6.88;3.08;;;;;;;;;;5056115;28;20291;-80
2023/04/12 01:11:15;;;;;;;5.32;1.90;;;;;;;;;;5056369;28;20291;-80
2023/04/12 01:13:45;;;;;;;4.65;1.70;;;;;;;;;;5074431;28;20180;-79
2023/04/12 01:16:22;;;;;;;1.95;1.75;;;;;;;;;;5056271;28;20181;-78
2023/04/12 01:18:50;;;;;;;3.90;1.33;;;;;;;;;;5056699;28;20291;-79
2023/04/12 01:21:19;;;;;;;4.13;1.30;;;;;;;;;;5074248;28;20176;-79
2023/04/12 01:23:57;;;;;;;5.35;1.85;;;;;;;;;;5074345;28;20639;-79
2023/04/12 01:26:31;;;;;;;4.25;1.85;;;;;;;;;;5055963;28;20588;-79
2023/04/12 01:28:58;;;;;;;3.60;1.40;;;;;;;;;;5074350;28;20165;-79
2023/04/12 01:31:25;;;;;;;5.50;1.55;;;;;;;;;;5055804;28;20779;-79
2023/04/12 01:33:52;;;;;;;2.90;1.58;;;;;;;;;;5056302;28;20192;-78
2023/04/12 01:36:20;;;;;;;5.20;1.40;;;;;;;;;;5039651;28;20176;-79
2023/04/12 01:38:46;;;;;;;2.47;1.30;;;;;;;;;;5056131;28;20184;-80
2023/04/12 01:41:12;;;;;;;2.53;1.17;;;;;;;;;;5056087;28;20179;-78
2023/04/12 01:43:44;;;;;;;1.98;1.10;;;;;;;;;;5055765;28;20610;-79
2023/04/12 01:46:12;;;;;;;4.05;1.38;;;;;;;;;;5056258;28;20559;-79
2023/04/12 01:48:38;;;;;;;1.48;1.10;;;;;;;;;;5056233;28;20211;-78
2023/04/12 01:51:05;;;;;;;4.20;1.17;;;;;;;;;;5056185;28;20215;-78
2023/04/12 01:53:31;;;;;;;4.85;1.83;;;;;;;;;;5056107;28;20277;-79
2023/04/12 01:55:58;;;;;;;5.23;1.70;;;;;;;;;;5059264;28;20212;-78
2023/04/12 01:58:24;;;;;;;4.38;1.92;;;;;;;;;;5042811;28;20785;-78
2023/04/12 02:00:52;;;;;;;1.75;1.25;;;;;;;;;;5078161;28;20185;-79
2023/04/12 02:03:20;;;;;;;5.78;1.73;;;;;;;;;;5077435;28;20185;-78
2023/04/12 02:05:46;;;;;;;3.80;1.42;;;;;;;;;;5077606;28;20469;-79
2023/04/12 02:08:12;;;;;;;2.20;1.40;;;;;;;;;;5059142;28;20308;-77
2023/04/12 02:10:39;;;;;;;3.75;1.38;;;;;;;;;;5077918;28;20204;-78
2023/04/12 02:13:05;;;;;;;3.53;1.55;;;;;;;;;;5059953;28;20262;-80
2023/04/12 02:15:32;;;;;;;1.80;1.20;;;;;;;;;;5059573;28;20177;-79
2023/04/12 02:17:58;;;;;;;5.60;1.50;;;;;;;;;;5059907;28;20696;-79
2023/04/12 02:20:24;;;;;;;1.98;1.35;;;;;;;;;;5059660;28;20181;-78
2023/04/12 02:22:50;;;;;;;3.28;1.08;;;;;;;;;;5059638;28;20200;-78
2023/04/12 02:25:19;;;;;;;3.03;1.70;;;;;;;;;;5077568;28;20172;-78
2023/04/12 02:27:45;;;;;;;1.92;1.20;;;;;;;;;;5059549;28;20233;-79
2023/04/12 02:30:12;;;;;;;2.30;1.45;;;;;;;;;;5077234;28;20220;-79
2023/04/12 02:32:44;;;;;;;3.55;1.30;;;;;;;;;;5059102;28;20192;-78
2023/04/12 02:35:11;;;;;;;1.98;1.20;;;;;;;;;;5043505;28;20188;-78
2023/04/12 02:37:37;;;;;;;2.47;1.58;;;;;;;;;;5042389;28;20184;-79
2023/04/12 02:40:05;;;;;;;2.80;1.40;;;;;;;;;;5060038;28;20568;-78
2023/04/12 02:42:31;;;;;;;5.47;1.50;;;;;;;;;;5042531;28;20664;-78
2023/04/12 02:44:57;;;;;;;2.70;1.30;;;;;;;;;;5059369;28;20180;-78
2023/04/12 02:47:27;;;;;;;3.47;1.70;;;;;;;;;;5059085;28;20641;-78
2023/04/12 02:49:53;;;;;;;2.22;1.55;;;;;;;;;;5059796;28;20244;-78
2023/04/12 02:52:19;;;;;;;3.05;1.48;;;;;;;;;;5042620;28;20231;-78
2023/04/12 02:54:45;;;;;;;1.85;1.52;;;;;;;;;;5059428;28;20181;-78
2023/04/12 02:57:12;;;;;;;3.33;1.50;;;;;;;;;;5058770;28;20179;-78
2023/04/12 02:59:39;;;;;;;2.08;1.50;;;;;;;;;;5058494;28;20486;-78
2023/04/12 03:02:05;;;;;;;3.97;2.35;;;;;;;;;;5042669;28;20568;-77
2023/04/12 03:04:31;;;;;;;2.13;1.20;;;;;;;;;;5042006;28;20203;-78
2023/04/12 03:06:57;;;;;;;4.00;1.75;;;;;;;;;;5058423;28;20415;-78
2023/04/12 03:09:24;;;;;;;6.72;1.60;;;;;;;;;;5076134;28;20266;-78
2023/04/12 03:11:50;;;;;;;2.17;1.30;;;;;;;;;;5059107;28;20204;-78
2023/04/12 03:14:16;;;;;;;2.03;1.33;;;;;;;;;;5058539;28;20605;-78
2023/04/12 03:16:43;;;;;;;4.18;1.20;;;;;;;;;;5076945;28;20640;-78
2023/04/12 03:19:09;;;;;;;2.33;1.60;;;;;;;;;;5058907;28;20185;-78
2023/04/12 03:21:35;;;;;;;3.38;1.70;;;;;;;;;;5058120;28;20181;-77
2023/04/12 03:24:03;;;;;;;2.63;1.40;;;;;;;;;;5042272;28;20183;-78
2023/04/12 03:26:29;;;;;;;1.55;1.38;;;;;;;;;;5076368;28;20508;-77
2023/04/12 03:29:00;;;;;;;3.58;1.33;;;;;;;;;;5058569;28;20226;-78
2023/04/12 03:31:26;;;;;;;3.80;1.40;;;;;;;;;;5058279;28;20632;-78
2023/04/12 03:33:53;;;;;;;4.65;1.55;;;;;;;;;;5058858;28;20177;-78
2023/04/12 03:36:22;;;;;;;1.98;1.30;;;;;;;;;;5058157;28;20173;-78
2023/04/12 03:38:48;;;;;;;2.30;1.00;;;;;;;;;;5058670;28;20173;-77
2023/04/12 03:41:15;;;;;;;2.60;1.27;;;;;;;;;;5076611;28;20165;-78
2023/04/12 03:43:41;;;;;;;2.22;1.38;;;;;;;;;;5058578;28;20403;-78
2023/04/12 03:46:07;;;;;;;3.47;1.23;;;;;;;;;;5058641;28;20184;-77
2023/04/12 03:48:33;;;;;;;6.10;1.52;;;;;;;;;;5057701;28;20185;-78
2023/04/12 03:51:06;;;;;;;2.50;1.58;;;;;;;;;;5076797;28;20224;-78
2023/04/12 03:53:32;;;;;;;2.28;1.20;;;;;;;;;;5057731;28;20215;-78
2023/04/12 03:55:58;;;;;;;2.38;1.30;;;;;;;;;;5041501;28;20193;-77
2023/04/12 03:58:25;;;;;;;3.65;2.38;;;;;;;;;;5041455;28;20191;-78
2023/04/12 04:00:52;;;;;;;3.92;1.40;;;;;;;;;;5057968;28;20721;-77
2023/04/12 04:03:18;;;;;;;4.45;1.40;;;;;;;;;;5041383;28;20267;-77
2023/04/12 04:05:44;;;;;;;1.15;0.88;;;;;;;;;;5057895;28;20182;-77
2023/04/12 04:08:11;;;;;;;1.48;1.30;;;;;;;;;;5058223;28;20271;-78
2023/04/12 04:10:37;;;;;;;2.65;1.10;;;;;;;;;;5057613;28;20572;-77
2023/04/12 04:13:03;;;;;;;2.92;1.33;;;;;;;;;;5041605;28;20227;-78
2023/04/12 04:15:29;;;;;;;2.42;1.33;;;;;;;;;;5041400;28;20208;-76
2023/04/12 04:17:55;;;;;;;1.23;0.95;;;;;;;;;;5057554;28;20187;-77
2023/04/12 04:20:21;;;;;;;1.63;0.98;;;;;;;;;;5041527;28;20216;-77
2023/04/12 04:22:47;;;;;;;3.08;1.20;;;;;;;;;;5041596;28;20864;-78
2023/04/12 04:25:14;;;;;;;4.70;1.52;;;;;;;;;;5041662;28;20189;-77
2023/04/12 04:27:44;;;;;;;1.33;1.23;;;;;;;;;;5076171;28;20165;-77
2023/04/12 04:30:11;;;;;;;4.63;1.95;;;;;;;;;;5057915;28;20235;-77
2023/04/12 04:32:37;;;;;;;5.50;1.35;;;;;;;;;;5057900;28;20632;-77
2023/04/12 04:35:04;;;;;;;2.13;1.45;;;;;;;;;;5041760;28;20181;-77
2023/04/12 04:37:34;;;;;;;2.92;1.23;;;;;;;;;;5076053;28;20173;-78
2023/04/12 04:40:00;;;;;;;2.33;1.40;;;;;;;;;;5058163;28;20180;-77
2023/04/12 04:42:28;;;;;;;1.90;1.13;;;;;;;;;;5058080;28;20264;-77
2023/04/12 04:45:02;;;;;;;2.33;1.80;;;;;;;;;;5075739;28;20176;-77
2023/04/12 04:47:29;;;;;;;3.58;1.48;;;;;;;;;;5075309;28;20173;-77
2023/04/12 04:49:56;;;;;;;2.50;1.15;;;;;;;;;;5057910;28;20250;-76
2023/04/12 04:52:22;;;;;;;2.40;1.27;;;;;;;;;;5075656;28;20163;-77
2023/04/12 04:54:48;;;;;;;1.95;1.20;;;;;;;;;;5057996;28;20199;-77
2023/04/12 04:57:15;;;;;;;2.10;1.00;;;;;;;;;;5057705;28;20196;-77
2023/04/12 04:59:41;;;;;;;3.40;1.45;;;;;;;;;;5057849;28;20211;-78
2023/04/12 05:02:07;;;;;;;1.40;1.00;;;;;;;;;;5041301;28;20184;-78
2023/04/12 05:04:33;;;;;;;2.38;1.10;;;;;;;;;;5057417;28;20568;-77
2023/04/12 05:06:59;;;;;;;2.00;1.10;;;;;;;;;;5057215;28;20222;-78
2023/04/12 05:09:25;;;;;;;4.25;1.38;;;;;;;;;;5057272;28;20473;-78
2023/04/12 05:11:51;;;;;;;6.77;1.43;;;;;;;;;;5057565;28;20184;-78
2023/04/12 05:14:17;;;;;;;2.17;1.30;;;;;;;;;;5056535;28;20422;-80
2023/04/12 05:16:44;;;;;;;6.20;1.20;;;;;;;;;;5057545;28;20548;-78
2023/04/12 05:19:10;;;;;;;1.48;1.30;;;;;;;;;;5057486;28;20173;-77
2023/04/12 05:21:35;;;;;;;1.57;1.47;;;;;;;;;;5057408;28;20172;-78
2023/04/12 05:24:03;;;;;;;4.77;2.60;;;;;;;;;;5074326;28;20403;-79
2023/04/12 05:26:29;;;;;;;2.40;1.80;;;;;;;;;;5040366;28;20491;-77
2023/04/12 05:28:55;;;;;;;3.08;1.77;;;;;;;;;;5041907;28;20536;-77
2023/04/12 05:31:21;;;;;;;3.00;1.48;;;;;;;;;;5079039;28;20504;-78
2023/04/12 05:33:48;;;;;;;2.45;1.40;;;;;;;;;;5061153;28;20199;-78
2023/04/12 05:36:14;;;;;;;3.70;2.15;;;;;;;;;;5044576;28;20542;-78
2023/04/12 05:38:40;;;;;;;6.15;1.65;;;;;;;;;;5060461;28;20184;-78
2023/04/12 05:41:06;;;;;;;2.22;1.95;;;;;;;;;;5044035;28;20536;-78
2023/04/12 05:43:32;;;;;;;2.30;1.55;;;;;;;;;;5043301;28;20244;-78
2023/04/12 05:45:58;;;;;;;4.93;2.00;;;;;;;;;;5060593;28;20205;-78
2023/04/12 05:48:24;;;;;;;4.65;2.20;;;;;;;;;;5060095;28;20403;-78
2023/04/12 05:50:54;;;;;;;3.55;1.70;;;;;;;;;;5060386;28;20216;-78
2023/04/12 05:53:20;;;;;;;5.88;2.42;;;;;;;;;;5059944;28;20178;-80
2023/04/12 05:55:46;;;;;;;3.53;2.45;;;;;;;;;;5060395;28;20605;-79
2023/04/12 05:58:12;;;;;;;3.53;2.90;;;;;;;;;;5059815;28;20282;-78
2023/04/12 06:00:40;;;;;;;3.42;2.72;;;;;;;;;;5077915;28;20798;-79
2023/04/12 06:03:08;;;;;;;4.60;2.85;;;;;;;;;;5059880;28;20185;-79
2023/04/12 06:05:34;;;;;;;4.88;2.72;;;;;;;;;;5043238;28;20263;-78
2023/04/12 06:08:00;;;;;;;3.67;3.30;;;;;;;;;;5043505;28;20177;-79
2023/04/12 06:10:26;;;;;;;4.10;3.13;;;;;;;;;;5043015;28;20212;-79
2023/04/12 06:12:52;;;;;;;5.50;2.88;;;;;;;;;;5077921;28;20293;-79
2023/04/12 06:15:19;;;;;;;4.23;3.03;;;;;;;;;;5077447;28;20184;-79
2023/04/12 06:17:45;;;;;;;3.40;3.10;;;;;;;;;;5043076;28;20473;-79
2023/04/12 06:20:12;;;;;;;2.85;2.60;;;;;;;;;;5078067;28;20712;-78
2023/04/12 06:22:38;;;;;;;4.72;2.75;;;;;;;;;;5059119;28;20190;-79
2023/04/12 06:25:04;;;;;;;4.47;3.83;;;;;;;;;;5077516;28;20169;-79
2023/04/12 06:27:30;;;;;;;4.32;3.22;;;;;;;;;;5077615;28;20172;-79
2023/04/12 06:29:56;;;;;;;3.92;3.53;;;;;;;;;;5059507;28;20221;-79
2023/04/12 06:32:23;;;;;;;3.80;3.38;;;;;;;;;;5077335;28;20177;-81
2023/04/12 06:34:49;;;;;;;3.22;2.92;;;;;;;;;;5059849;28;20181;-79
2023/04/12 06:37:15;;;;;;;4.95;3.30;;;;;;;;;;5042878;28;20176;-80
2023/04/12 06:39:41;;;;;;;4.68;3.55;;;;;;;;;;5076489;28;20169;-81
2023/04/12 06:42:07;;;;;;;4.80;3.63;;;;;;;;;;5058831;28;20762;-79
2023/04/12 06:44:33;;;;;;;4.23;2.90;;;;;;;;;;5042275;28;20216;-79
2023/04/12 06:46:59;;;;;;;13.13;3.63;;;;;;;;;;5059411;28;20406;-79
2023/04/12 06:49:25;;;;;;;3.40;2.80;;;;;;;;;;5059123;28;20542;-80
2023/04/12 06:51:51;;;;;;;4.57;3.90;;;;;;;;;;5058984;28;20196;-80
2023/04/12 06:54:17;;;;;;;4.82;3.40;;;;;;;;;;5058617;28;20235;-79
2023/04/12 06:56:43;;;;;;;4.57;3.00;;;;;;;;;;5042301;28;20645;-80
2023/04/12 06:59:10;;;;;;;4.87;3.87;;;;;;;;;;5059485;28;20403;-79
2023/04/12 07:01:36;;;;;;;5.32;3.00;;;;;;;;;;5059053;28;20411;-79
2023/04/12 07:04:02;;;;;;;5.20;3.67;;;;;;;;;;5042291;28;20181;-80
2023/04/12 07:06:28;;;;;;;5.13;3.87;;;;;;;;;;5041649;28;21002;-79
2023/04/12 07:08:54;;;;;;;6.32;3.35;;;;;;;;;;5058717;28;20466;-80
2023/04/12 07:11:23;;;;;;;5.38;3.88;;;;;;;;;;5076704;28;20219;-80
2023/04/12 07:13:50;;;;;;;4.97;4.13;;;;;;;;;;5042862;28;20727;-80
2023/04/12 07:16:17;;;;;;;6.05;3.75;;;;;;;;;;5059027;28;20288;-80
2023/04/12 07:18:43;;;;;;;8.18;3.10;;;;;;;;;;5058076;28;20624;-80
2023/04/12 07:21:13;;;;;;;4.80;3.00;;;;;;;;;;5058119;28;20236;-79
2023/04/12 07:23:39;;;;;;;3.67;2.67;;;;;;;;;;5058206;28;20506;-79
2023/04/12 07:26:05;;;;;;;7.10;4.55;;;;;;;;;;5041878;28;20588;-80
2023/04/12 07:28:31;;;;;;;5.25;4.13;;;;;;;;;;5058652;28;20256;-79
2023/04/12 07:30:59;;;;;;;4.15;3.33;;;;;;;;;;5057762;28;20786;-79
2023/04/12 07:33:25;;;;;;;4.80;4.35;;;;;;;;;;5063253;28;20179;-78
2023/04/12 07:36:10;;;;;;;6.90;3.95;;;;;;;;;;5077132;28;20176;-78
2023/04/12 07:38:36;;;;;;;4.70;4.30;;;;;;;;;;5080642;28;20180;-77
2023/04/12 07:41:02;;;;;;;4.03;3.72;;;;;;;;;;5078096;28;20203;-77
2023/04/12 07:43:28;;;;;;;5.22;4.15;;;;;;;;;;5078428;28;20180;-76
2023/04/12 07:45:55;;;;;;;4.07;3.65;;;;;;;;;;5078124;28;20172;-77
2023/04/12 07:48:21;;;;;;;4.20;3.53;;;;;;;;;;5061465;28;20271;-78
2023/04/12 07:50:47;;;;;;;4.70;3.90;;;;;;;;;;5078284;28;21020;-76
2023/04/12 07:53:22;;;;;;;3.87;3.53;;;;;;;;;;5096466;28;20459;-76
2023/04/12 07:55:49;;;;;;;4.32;3.45;;;;;;;;;;5097017;28;20413;-77
2023/04/12 07:58:15;;;;;;;4.40;4.00;;;;;;;;;;5062189;28;20184;-76
2023/04/12 08:00:42;;;;;;;4.93;3.42;;;;;;;;;;5075874;28;20184;-76
2023/04/12 08:03:08;;;;;;;4.55;4.15;;;;;;;;;;5058355;28;20181;-76
2023/04/12 08:05:34;;;;;;;5.57;3.40;;;;;;;;;;5058411;28;20184;-77
2023/04/12 08:08:00;;;;;;;3.72;3.42;;;;;;;;;;5076170;28;20743;-78
2023/04/12 08:10:26;;;;;;;3.13;2.83;;;;;;;;;;5041160;28;20223;-79
2023/04/12 08:12:52;;;;;;;3.78;3.38;;;;;;;;;;5041346;28;20830;-78
2023/04/12 08:15:18;;;;;;;5.77;2.93;;;;;;;;;;5057228;28;20184;-77
2023/04/12 08:17:45;;;;;;;4.50;3.63;;;;;;;;;;5040594;28;20411;-78
2023/04/12 08:20:14;;;;;;;4.65;3.40;;;;;;;;;;5057712;28;20597;-78
2023/04/12 08:22:40;;;;;;;3.25;2.95;;;;;;;;;;5041259;28;20176;-79
2023/04/12 08:25:07;;;;;;;4.50;3.10;;;;;;;;;;5075645;28;20173;-77
2023/04/12 08:27:33;;;;;;;3.70;3.00;;;;;;;;;;5057426;28;20465;-78
2023/04/12 08:29:59;;;;;;;2.73;2.33;;;;;;;;;;5075249;28;20200;-78
2023/04/12 08:32:25;;;;;;;4.05;2.55;;;;;;;;;;5075409;28;20417;-78
2023/04/12 08:34:51;;;;;;;3.55;3.25;;;;;;;;;;5075174;28;20207;-78
2023/04/12 08:37:17;;;;;;;3.38;3.08;;;;;;;;;;5040447;28;20275;-77
2023/04/12 08:39:43;;;;;;;3.72;2.78;;;;;;;;;;5056839;28;20177;-77
2023/04/12 08:42:10;;;;;;;2.97;2.75;;;;;;;;;;5075810;28;20168;-78
2023/04/12 08:44:37;;;;;;;2.50;2.30;;;;;;;;;;5074734;28;20205;-78
2023/04/12 08:47:04;;;;;;;2.63;2.42;;;;;;;;;;5040460;28;20188;-78
2023/04/12 08:49:33;;;;;;;3.00;2.15;;;;;;;;;;5040680;28;20236;-80
2023/04/12 08:52:06;;;;;;;3.17;2.38;;;;;;;;;;5057104;28;20180;-78
2023/04/12 08:54:36;;;;;;;3.10;2.67;;;;;;;;;;5056193;28;20189;-77
2023/04/12 08:57:06;;;;;;;5.13;2.20;;;;;;;;;;5057078;28;20192;-78
2023/04/12 08:59:36;;;;;;;5.22;2.33;;;;;;;;;;5056683;28;20283;-79
2023/04/12 09:02:02;;;;;;;3.70;2.45;;;;;;;;;;5075077;28;20287;-77
2023/04/12 09:04:28;;;;;;;3.20;2.70;;;;;;;;;;5059973;28;20238;-78
2023/04/12 09:06:54;;;;;;;4.57;3.80;;;;;;;;;;5060541;28;20185;-78
2023/04/12 09:09:40;;;;;;;4.53;2.90;;;;;;;;;;5078190;28;20391;-78
2023/04/12 09:12:06;;;;;;;2.03;1.80;;;;;;;;;;5069724;28;20191;-81
2023/04/12 09:14:32;;;;;;;4.38;2.35;;;;;;;;;;5073503;28;20184;-82
2023/04/12 09:16:58;;;;;;;3.63;2.70;;;;;;;;;;5070762;28;20530;-80
2023/04/12 09:19:34;;;;;;;3.00;2.50;;;;;;;;;;5078237;28;20414;-81
2023/04/12 09:22:01;;;;;;;2.60;2.40;;;;;;;;;;5060251;28;20949;-81
2023/04/12 09:24:27;;;;;;;4.90;2.85;;;;;;;;;;5061387;28;20180;-78
2023/04/12 09:27:03;;;;;;;4.18;2.60;;;;;;;;;;5078019;28;20258;-78
2023/04/12 09:29:29;;;;;;;2.90;2.40;;;;;;;;;;5078724;28;20214;-78
2023/04/12 09:32:02;;;;;;;3.00;2.70;;;;;;;;;;5077432;28;20173;-77
2023/04/12 09:34:32;;;;;;;3.88;2.45;;;;;;;;;;5068710;28;20191;-77
2023/04/12 09:36:58;;;;;;;3.08;2.78;;;;;;;;;;5059396;28;20189;-79
2023/04/12 09:39:34;;;;;;;3.50;2.58;;;;;;;;;;5060044;28;20267;-81
2023/04/12 09:42:04;;;;;;;3.55;2.45;;;;;;;;;;5062594;28;20181;-80
2023/04/12 09:44:30;;;;;;;3.80;2.30;;;;;;;;;;5058368;28;20173;-82
2023/04/12 09:46:57;;;;;;;3.30;2.70;;;;;;;;;;5075386;28;20757;-81
2023/04/12 09:49:37;;;;;;;3.30;2.50;;;;;;;;;;5064620;28;20497;-81
2023/04/12 09:52:03;;;;;;;2.97;2.43;;;;;;;;;;5077771;28;20431;-78
2023/04/12 09:54:30;;;;;;;2.57;2.37;;;;;;;;;;5059112;28;20410;-80
2023/04/12 09:56:56;;;;;;;2.83;2.10;;;;;;;;;;5059621;28;20386;-81
2023/04/12 09:59:23;;;;;;;2.93;1.80;;;;;;;;;;5077010;28;20419;-81
2023/04/12 10:01:50;;;;;;;1.70;1.60;;;;;;;;;;5058214;28;20833;-83
2023/04/12 10:04:16;;;;;;;2.23;1.80;;;;;;;;;;5059036;28;20453;-81
2023/04/12 10:06:43;;;;;;;3.70;1.67;;;;;;;;;;5042481;28;20454;-81
2023/04/12 10:09:10;;;;;;;1.93;1.53;;;;;;;;;;5076766;28;20465;-83
2023/04/12 10:11:39;;;;;;;2.63;1.37;;;;;;;;;;5058929;28;20419;-82
2023/04/12 10:14:05;;;;;;;1.67;1.37;;;;;;;;;;5076979;28;20490;-81
2023/04/12 10:16:33;;;;;;;1.30;1.20;;;;;;;;;;5040686;28;20763;-83
2023/04/12 10:19:01;;;;;;;1.27;1.00;;;;;;;;;;5058172;28;20502;-82
2023/04/12 10:21:27;;;;;;;1.73;1.00;;;;;;;;;;5059426;28;20768;-82
2023/04/12 10:23:54;;;;;;;0.80;0.73;;;;;;;;;;5077039;28;20761;-82
2023/04/12 10:26:20;;;;;;;2.45;1.20;;;;;;;;;;5059431;28;20424;-82
2023/04/12 10:29:06;;;;;;;1.20;0.80;;;;;;;;;;5059809;28;20227;-80
2023/04/12 10:31:32;;;;;;;1.27;1.17;;;;;;;;;;5059004;28;20435;-81
2023/04/12 10:34:01;;;;;;;1.30;1.10;;;;;;;;;;5058698;28;20195;-82
2023/04/12 10:36:46;;;;;;;0.95;0.80;;;;;;;;;;5058571;28;20212;-81
2023/04/12 10:39:14;;;;;;;2.00;1.08;;;;;;;;;;5058909;28;20184;-79
2023/04/12 10:42:00;;;;;;;2.78;1.70;;;;;;;;;;5043100;28;20573;-79
2023/04/12 10:44:26;;;;;;;4.40;1.48;;;;;;;;;;5063119;28;20176;-79
2023/04/12 10:46:52;;;;;;;2.60;1.45;;;;;;;;;;5078886;28;20207;-80
2023/04/12 10:49:18;;;;;;;2.15;1.92;;;;;;;;;;5072711;28;20229;-80
2023/04/12 10:52:03;;;;;;;2.45;1.95;;;;;;;;;;5076846;28;20185;-79
2023/04/12 10:54:29;;;;;;;6.65;2.35;;;;;;;;;;5075344;28;20180;-79
2023/04/12 10:56:56;;;;;;;6.85;2.20;;;;;;;;;;5076952;28;20165;-79
2023/04/12 10:59:22;;;;;;;2.78;1.70;;;;;;;;;;5069675;28;20184;-80
2023/04/12 11:02:08;;;;;;;3.88;2.10;;;;;;;;;;5050241;28;20268;-79
2023/04/12 11:04:34;;;;;;;6.03;2.47;;;;;;;;;;5076231;28;20184;-79
2023/04/12 11:07:10;;;;;;;5.47;2.38;;;;;;;;;;5052123;28;20272;-79
2023/04/12 11:09:36;;;;;;;5.60;3.40;;;;;;;;;;5061001;28;20188;-80
2023/04/12 11:12:05;;;;;;;7.83;3.73;;;;;;;;;;5071056;28;20180;-79
2023/04/12 11:14:34;;;;;;;5.30;3.10;;;;;;;;;;5069636;28;20505;-80
2023/04/12 11:17:06;;;;;;;6.43;3.28;;;;;;;;;;5058133;28;20169;-81
2023/04/12 11:19:32;;;;;;;5.47;3.03;;;;;;;;;;5076026;28;20648;-81
2023/04/12 11:22:03;;;;;;;5.68;2.88;;;;;;;;;;5076331;28;20188;-82
2023/04/12 11:24:29;;;;;;;9.53;2.17;;;;;;;;;;5058396;28;20652;-81
2023/04/12 11:26:56;;;;;;;7.95;2.42;;;;;;;;;;5057626;28;20399;-81
2023/04/12 11:29:26;;;;;;;2.53;1.43;;;;;;;;;;5058223;28;20189;-80
2023/04/12 11:31:53;;;;;;;7.40;2.33;;;;;;;;;;5055385;28;20448;-82
2023/04/12 11:34:19;;;;;;;6.10;1.93;;;;;;;;;;5046083;28;20938;-82
2023/04/12 11:36:46;;;;;;;7.07;1.77;;;;;;;;;;5075411;28;20903;-83
2023/04/12 11:39:12;;;;;;;4.70;2.10;;;;;;;;;;5063196;28;20419;-80
2023/04/12 11:41:45;;;;;;;3.47;1.13;;;;;;;;;;5075919;28;20494;-81
2023/04/12 11:44:12;;;;;;;3.43;1.10;;;;;;;;;;5076662;28;20447;-82
2023/04/12 11:46:38;;;;;;;7.20;1.20;;;;;;;;;;5066150;28;20457;-81
2023/04/12 11:49:05;;;;;;;5.00;1.53;;;;;;;;;;5062455;28;20541;-82
2023/04/12 11:51:32;;;;;;;2.97;1.37;;;;;;;;;;5040526;28;20476;-82
2023/04/12 11:53:58;;;;;;;3.50;1.37;;;;;;;;;;5056957;28;20480;-83
2023/04/12 11:56:26;;;;;;;4.50;1.17;;;;;;;;;;5056706;28;20422;-81
2023/04/12 11:58:52;;;;;;;4.60;1.63;;;;;;;;;;5056782;28;20418;-82
2023/04/12 12:01:22;;;;;;;3.90;1.20;;;;;;;;;;5075328;28;20423;-84
2023/04/12 12:03:48;;;;;;;4.33;1.87;;;;;;;;;;5056719;28;20945;-82
2023/04/12 12:06:15;;;;;;;3.47;1.63;;;;;;;;;;5040568;28;20455;-82
2023/04/12 12:08:41;;;;;;;3.17;1.57;;;;;;;;;;5057025;28;20428;-85
2023/04/12 12:11:07;;;;;;;5.43;2.07;;;;;;;;;;5051457;28;20830;-83
2023/04/12 12:13:46;;;;;;;3.13;1.10;;;;;;;;;;5074381;28;20430;-83
2023/04/12 12:16:12;;;;;;;3.63;1.10;;;;;;;;;;5073691;28;20417;-84
2023/04/12 12:18:44;;;;;;;12.30;1.47;;;;;;;;;;5056093;28;20511;-82
2023/04/12 12:21:13;;;;;;;4.83;1.00;;;;;;;;;;5074347;28;20756;-83
2023/04/12 12:23:41;;;;;;;7.00;1.27;;;;;;;;;;5073620;28;20416;-85
2023/04/12 12:26:07;;;;;;;2.20;1.17;;;;;;;;;;5056211;28;20419;-83
2023/04/12 12:28:37;;;;;;;2.80;1.30;;;;;;;;;;5056554;28;20429;-83
2023/04/12 12:31:05;;;;;;;3.93;1.30;;;;;;;;;;5073850;28;20478;-85
2023/04/12 12:33:38;;;;;;;6.80;1.40;;;;;;;;;;5074633;28;20417;-82
2023/04/12 12:36:04;;;;;;;3.30;2.30;;;;;;;;;;5056478;28;20926;-82
2023/04/12 12:38:36;;;;;;;6.43;1.50;;;;;;;;;;5073046;28;20410;-84
2023/04/12 12:41:17;;;;;;;8.40;1.20;;;;;;;;;;5056345;28;20390;-83
2023/04/12 12:43:47;;;;;;;5.00;1.60;;;;;;;;;;5074323;28;20435;-86
2023/04/12 12:46:13;;;;;;;5.47;1.70;;;;;;;;;;5055197;28;20415;-83
2023/04/12 12:48:40;;;;;;;9.63;1.57;;;;;;;;;;5055820;28;20476;-82
2023/04/12 12:51:06;;;;;;;7.03;1.47;;;;;;;;;;5074443;28;20603;-83
2023/04/12 12:53:32;;;;;;;10.60;2.10;;;;;;;;;;5055785;28;20427;-82
2023/04/12 12:55:59;;;;;;;5.30;1.60;;;;;;;;;;5073972;28;20385;-81
2023/04/12 12:58:25;;;;;;;3.47;1.20;;;;;;;;;;5056908;28;20783;-81
2023/04/12 13:00:51;;;;;;;6.20;1.53;;;;;;;;;;5055931;28;20427;-83
2023/04/12 13:03:17;;;;;;;6.97;2.50;;;;;;;;;;5074610;28;20403;-82
2023/04/12 13:05:43;;;;;;;4.40;1.40;;;;;;;;;;5056466;28;20403;-83
2023/04/12 13:08:08;;;;;;;4.80;1.40;;;;;;;;;;5055723;28;20430;-82
2023/04/12 13:10:34;;;;;;;7.03;2.27;;;;;;;;;;5056377;28;20509;-82
2023/04/12 13:13:02;;;;;;;5.73;1.40;;;;;;;;;;5046923;28;20786;-83
2023/04/12 13:15:28;;;;;;;11.13;2.17;;;;;;;;;;5073361;28;20399;-85
2023/04/12 13:17:54;;;;;;;8.10;1.80;;;;;;;;;;5039182;28;20510;-82
2023/04/12 13:20:20;;;;;;;5.77;2.00;;;;;;;;;;5040189;28;20426;-81
2023/04/12 13:22:46;;;;;;;4.80;2.03;;;;;;;;;;5055982;28;20900;-85
2023/04/12 13:25:12;;;;;;;7.40;1.77;;;;;;;;;;5056057;28;20389;-81
2023/04/12 13:27:39;;;;;;;4.70;2.07;;;;;;;;;;5074615;28;20796;-81
2023/04/12 13:30:05;;;;;;;4.60;1.77;;;;;;;;;;5056313;28;20467;-82
2023/04/12 13:32:31;;;;;;;4.57;1.47;;;;;;;;;;5074533;28;20473;-79
2023/04/12 13:34:57;;;;;;;6.30;2.13;;;;;;;;;;5040253;28;20454;-81
2023/04/12 13:37:23;;;;;;;9.90;2.17;;;;;;;;;;5056850;28;20465;-81
2023/04/12 13:39:50;;;;;;;9.40;2.10;;;;;;;;;;5072039;28;20510;-82
2023/04/12 13:42:16;;;;;;;8.73;1.70;;;;;;;;;;5056320;28;20442;-82
2023/04/12 13:44:42;;;;;;;4.83;1.90;;;;;;;;;;5074852;28;20407;-82
2023/04/12 13:47:08;;;;;;;6.30;1.70;;;;;;;;;;5055868;28;21331;-81
2023/04/12 13:49:34;;;;;;;9.90;2.00;;;;;;;;;;5075433;28;20481;-81
2023/04/12 13:52:01;;;;;;;6.30;1.60;;;;;;;;;;5060196;28;20522;-81
2023/04/12 13:54:27;;;;;;;9.30;1.97;;;;;;;;;;5059817;28;20551;-80
2023/04/12 13:56:53;;;;;;;6.50;1.67;;;;;;;;;;5042959;28;20407;-81
2023/04/12 13:59:19;;;;;;;6.10;1.90;;;;;;;;;;5077428;28;20423;-81
2023/04/12 14:01:45;;;;;;;5.73;2.00;;;;;;;;;;5077383;28;20430;-85
2023/04/12 14:04:11;;;;;;;9.50;1.97;;;;;;;;;;5059356;28;20907;-81
2023/04/12 14:06:37;;;;;;;10.50;2.23;;;;;;;;;;5059766;28;20471;-81
2023/04/12 14:09:07;;;;;;;4.47;1.47;;;;;;;;;;5042332;28;20473;-80
2023/04/12 14:11:46;;;;;;;4.60;1.53;;;;;;;;;;5057427;28;20475;-81
2023/04/12 14:14:12;;;;;;;5.57;2.17;;;;;;;;;;5048363;28;20428;-81
2023/04/12 14:16:38;;;;;;;6.73;2.50;;;;;;;;;;5058708;28;20426;-82
2023/04/12 14:19:04;;;;;;;8.00;1.90;;;;;;;;;;5058762;28;20415;-80
2023/04/12 14:21:30;;;;;;;6.20;1.70;;;;;;;;;;5077697;28;20450;-81
2023/04/12 14:23:56;;;;;;;3.40;1.53;;;;;;;;;;5059020;28;20865;-80
2023/04/12 14:26:22;;;;;;;2.87;1.40;;;;;;;;;;5077752;28;20403;-79
2023/04/12 14:28:48;;;;;;;4.50;1.57;;;;;;;;;;5059354;28;20415;-84
2023/04/12 14:31:15;;;;;;;2.37;1.50;;;;;;;;;;5059011;28;20533;-81
2023/04/12 14:33:41;;;;;;;3.10;1.50;;;;;;;;;;5078132;28;20406;-81
2023/04/12 14:36:07;;;;;;;4.60;1.87;;;;;;;;;;5059785;28;20403;-80
2023/04/12 14:38:33;;;;;;;3.50;1.60;;;;;;;;;;5075310;28;20403;-81
2023/04/12 14:40:59;;;;;;;3.80;1.60;;;;;;;;;;5059068;28;20415;-81
2023/04/12 14:43:26;;;;;;;3.40;1.97;;;;;;;;;;5059802;28;20378;-82
2023/04/12 14:45:52;;;;;;;5.53;1.27;;;;;;;;;;5068473;28;20441;-82